createdAt,value
2022-07-31T00:00:29.785Z,66.52
2022-07-31T00:01:05.071Z,66.21
2022-07-31T00:01:40.357Z,66.52
2022-07-31T00:02:15.674Z,66.11
2022-07-31T00:02:50.777Z,66.01
2022-07-31T00:03:26.131Z,66.52
2022-07-31T00:04:01.296Z,65.91
2022-07-31T00:04:36.437Z,66.01
2022-07-31T00:05:11.824Z,66.21
2022-07-31T00:05:47.158Z,65.61
2022-07-31T00:06:22.471Z,66.52
2022-07-31T00:06:57.597Z,66.11
2022-07-31T00:07:32.801Z,67.32
2022-07-31T00:08:07.930Z,66.82
2022-07-31T00:08:43.143Z,68.12
2022-07-31T00:09:45.421Z,68.42
2022-07-31T00:09:54.694Z,68.72
2022-07-31T00:10:28.816Z,70.39
2022-07-31T00:11:04.092Z,70.23
2022-07-31T00:11:39.028Z,66.71
2022-07-31T00:12:14.138Z,66.11
2022-07-31T00:12:49.355Z,65.41
2022-07-31T00:13:57.293Z,65.71
2022-07-31T00:13:59.471Z,66.82
2022-07-31T00:14:35.194Z,65.51
2022-07-31T00:15:10.419Z,65.91
2022-07-31T00:15:45.727Z,65.48
2022-07-31T00:16:21.052Z,65.71
2022-07-31T00:16:56.066Z,65.21
2022-07-31T00:17:31.189Z,65.71
2022-07-31T00:18:06.403Z,65.48
2022-07-31T00:18:41.710Z,65.48
2022-07-31T00:19:16.913Z,65.31
2022-07-31T00:19:52.117Z,66.01
2022-07-31T00:20:27.345Z,65.88
2022-07-31T00:21:02.474Z,66.41
2022-07-31T00:21:37.398Z,65.81
2022-07-31T00:22:12.705Z,65.81
2022-07-31T00:22:47.820Z,65.71
2022-07-31T00:23:22.823Z,65.91
2022-07-31T00:23:58.350Z,65.71
2022-07-31T00:24:33.771Z,65.71
2022-07-31T00:25:09.199Z,65.98
2022-07-31T00:25:44.626Z,66.01
2022-07-31T00:26:20.037Z,66.41
2022-07-31T00:26:55.290Z,65.91
2022-07-31T00:27:30.639Z,65.91
2022-07-31T00:28:06.178Z,65.31
2022-07-31T00:28:41.303Z,65.81
2022-07-31T00:29:16.558Z,65.98
2022-07-31T00:29:51.585Z,66.71
2022-07-31T00:30:26.937Z,66.82
2022-07-31T00:31:02.249Z,66.91
2022-07-31T00:31:38.954Z,66.71
2022-07-31T00:32:12.995Z,68.52
2022-07-31T00:32:48.950Z,67.72
2022-07-31T00:33:23.634Z,68.82
2022-07-31T00:33:58.756Z,66.52
2022-07-31T00:34:34.176Z,66.11
2022-07-31T00:35:09.663Z,66.11
2022-07-31T00:35:45.323Z,65.68
2022-07-31T00:36:20.529Z,65.91
2022-07-31T00:36:55.836Z,66.52
2022-07-31T00:37:30.979Z,66.41
2022-07-31T00:38:26.348Z,66.41
2022-07-31T00:38:41.300Z,66.21
2022-07-31T00:39:16.794Z,66.41
2022-07-31T00:39:52.161Z,66.61
2022-07-31T00:40:27.368Z,68.12
2022-07-31T00:41:02.498Z,68.42
2022-07-31T00:41:37.809Z,66.11
2022-07-31T00:42:12.973Z,66.01
2022-07-31T00:42:48.277Z,66.31
2022-07-31T00:43:23.528Z,65.41
2022-07-31T00:43:58.620Z,66.11
2022-07-31T00:44:34.141Z,66.01
2022-07-31T00:45:09.362Z,65.71
2022-07-31T00:45:44.732Z,65.91
2022-07-31T00:46:19.932Z,66.52
2022-07-31T00:46:54.942Z,65.71
2022-07-31T00:47:29.976Z,66.61
2022-07-31T00:48:05.380Z,66.11
2022-07-31T00:48:40.815Z,66.21
2022-07-31T00:49:16.226Z,66.01
2022-07-31T00:49:51.485Z,65.81
2022-07-31T00:50:26.965Z,66.01
2022-07-31T00:51:01.871Z,66.14
2022-07-31T00:51:37.106Z,66.85
2022-07-31T00:52:12.511Z,66.21
2022-07-31T00:52:47.785Z,66.44
2022-07-31T00:53:23.084Z,66.44
2022-07-31T00:53:58.615Z,66.55
2022-07-31T00:54:33.657Z,66.14
2022-07-31T00:55:09.074Z,66.05
2022-07-31T00:55:51.814Z,66.55
2022-07-31T00:56:19.213Z,66.64
2022-07-31T00:56:54.469Z,66.85
2022-07-31T00:57:29.596Z,66.35
2022-07-31T00:58:04.767Z,66.14
2022-07-31T00:58:39.978Z,66.44
2022-07-31T00:59:15.322Z,68.25
2022-07-31T00:59:50.631Z,66.95
2022-07-31T01:00:25.978Z,66.44
2022-07-31T01:01:01.168Z,65.94
2022-07-31T01:01:36.682Z,66.67
2022-07-31T01:02:11.859Z,66.75
2022-07-31T01:02:47.390Z,67.65
2022-07-31T01:03:23.208Z,66.55
2022-07-31T01:03:58.334Z,66.14
2022-07-31T01:04:33.534Z,66.78
2022-07-31T01:05:08.662Z,66.67
2022-07-31T01:05:43.693Z,66.47
2022-07-31T01:06:18.842Z,66.88
2022-07-31T01:06:54.256Z,67.38
2022-07-31T01:07:29.526Z,67.78
2022-07-31T01:08:04.652Z,67.28
2022-07-31T01:08:39.685Z,67.58
2022-07-31T01:09:15.055Z,68.18
2022-07-31T01:09:50.297Z,67.68
2022-07-31T01:10:25.745Z,66.88
2022-07-31T01:11:00.980Z,67.38
2022-07-31T01:11:36.312Z,67.48
2022-07-31T01:12:11.744Z,67.45
2022-07-31T01:12:49.757Z,67.28
2022-07-31T01:13:29.384Z,67.68
2022-07-31T01:14:04.694Z,66.98
2022-07-31T01:14:40.120Z,68.08
2022-07-31T01:15:15.541Z,69.19
2022-07-31T01:15:50.686Z,68.29
2022-07-31T01:16:26.096Z,67.78
2022-07-31T01:17:01.607Z,67.35
2022-07-31T01:17:36.479Z,67.68
2022-07-31T01:18:11.695Z,67.58
2022-07-31T01:18:46.910Z,67.18
2022-07-31T01:19:22.063Z,67.18
2022-07-31T01:19:57.492Z,66.78
2022-07-31T01:20:32.895Z,67.38
2022-07-31T01:21:08.241Z,67.88
2022-07-31T01:21:43.458Z,68.79
2022-07-31T01:22:34.190Z,68.18
2022-07-31T01:22:54.038Z,67.38
2022-07-31T01:23:29.637Z,68.18
2022-07-31T01:24:05.198Z,68.49
2022-07-31T01:24:40.408Z,68.02
2022-07-31T01:25:15.854Z,67.71
2022-07-31T01:25:51.277Z,67.68
2022-07-31T01:26:26.604Z,68.92
2022-07-31T01:27:02.073Z,68.62
2022-07-31T01:27:49.745Z,68.62
2022-07-31T01:28:12.259Z,67.68
2022-07-31T01:28:47.485Z,67.98
2022-07-31T01:29:22.713Z,68.41
2022-07-31T01:29:57.982Z,68.62
2022-07-31T01:30:33.206Z,68.08
2022-07-31T01:31:26.275Z,68.32
2022-07-31T01:31:43.458Z,69.82
2022-07-31T01:32:18.570Z,70.50
2022-07-31T01:32:53.892Z,68.88
2022-07-31T01:33:28.897Z,68.99
2022-07-31T01:34:04.209Z,68.21
2022-07-31T01:34:39.537Z,68.38
2022-07-31T01:35:14.574Z,69.22
2022-07-31T01:35:50.494Z,68.41
2022-07-31T01:36:25.394Z,68.52
2022-07-31T01:37:00.620Z,68.41
2022-07-31T01:37:35.864Z,69.22
2022-07-31T01:38:11.065Z,68.52
2022-07-31T01:38:46.184Z,69.12
2022-07-31T01:39:21.505Z,68.41
2022-07-31T01:39:57.257Z,69.42
2022-07-31T01:40:32.679Z,69.02
2022-07-31T01:41:08.023Z,68.92
2022-07-31T01:41:43.236Z,69.22
2022-07-31T01:42:18.467Z,68.52
2022-07-31T01:42:53.916Z,69.82
2022-07-31T01:43:29.122Z,70.23
2022-07-31T01:44:04.525Z,70.73
2022-07-31T01:44:39.643Z,70.03
2022-07-31T01:45:15.191Z,68.75
2022-07-31T01:45:50.438Z,68.95
2022-07-31T01:46:25.575Z,68.72
2022-07-31T01:47:01.550Z,69.56
2022-07-31T01:47:36.429Z,68.82
2022-07-31T01:48:11.767Z,69.96
2022-07-31T01:48:47.291Z,68.65
2022-07-31T01:49:22.393Z,68.85
2022-07-31T01:49:57.965Z,68.75
2022-07-31T01:50:43.047Z,68.41
2022-07-31T01:51:08.529Z,69.65
2022-07-31T01:51:43.853Z,68.85
2022-07-31T01:52:19.081Z,68.85
2022-07-31T01:52:54.421Z,68.75
2022-07-31T01:53:30.023Z,68.75
2022-07-31T01:54:05.348Z,68.85
2022-07-31T01:54:40.552Z,69.06
2022-07-31T01:55:16.190Z,68.85
2022-07-31T01:56:02.051Z,69.56
2022-07-31T01:56:27.199Z,69.56
2022-07-31T01:57:02.446Z,69.25
2022-07-31T01:57:37.685Z,69.76
2022-07-31T01:58:13.338Z,70.06
2022-07-31T01:58:48.950Z,69.56
2022-07-31T01:59:24.532Z,69.56
2022-07-31T01:59:59.391Z,69.76
2022-07-31T02:00:34.909Z,69.85
2022-07-31T02:01:11.459Z,70.09
2022-07-31T02:01:45.570Z,69.89
2022-07-31T02:02:21.024Z,69.99
2022-07-31T02:02:56.439Z,69.65
2022-07-31T02:03:44.142Z,69.99
2022-07-31T02:04:06.995Z,70.09
2022-07-31T02:04:42.013Z,69.99
2022-07-31T02:05:17.033Z,70.19
2022-07-31T02:05:52.340Z,69.85
2022-07-31T02:06:27.880Z,69.49
2022-07-31T02:07:03.236Z,70.09
2022-07-31T02:07:38.244Z,69.99
2022-07-31T02:08:13.771Z,69.65
2022-07-31T02:08:48.687Z,71.20
2022-07-31T02:09:24.004Z,70.50
2022-07-31T02:09:59.442Z,69.89
2022-07-31T02:10:34.819Z,69.79
2022-07-31T02:11:10.457Z,69.79
2022-07-31T02:11:54.400Z,70.36
2022-07-31T02:12:33.614Z,69.99
2022-07-31T02:12:56.748Z,69.89
2022-07-31T02:13:32.062Z,70.09
2022-07-31T02:14:07.582Z,70.19
2022-07-31T02:14:42.895Z,71.40
2022-07-31T02:15:18.244Z,70.39
2022-07-31T02:15:53.375Z,70.39
2022-07-31T02:16:28.522Z,70.50
2022-07-31T02:17:03.736Z,70.29
2022-07-31T02:17:39.059Z,70.79
2022-07-31T02:18:14.172Z,70.59
2022-07-31T02:18:49.501Z,70.59
2022-07-31T02:19:24.968Z,70.59
2022-07-31T02:20:00.719Z,70.59
2022-07-31T02:20:35.821Z,70.89
2022-07-31T02:21:11.351Z,70.29
2022-07-31T02:21:46.697Z,70.19
2022-07-31T02:22:24.700Z,71.50
2022-07-31T02:22:57.370Z,70.09
2022-07-31T02:23:32.499Z,71.20
2022-07-31T02:24:07.734Z,71.43
2022-07-31T02:24:43.182Z,71.13
2022-07-31T02:25:19.009Z,71.23
2022-07-31T02:25:54.121Z,71.13
2022-07-31T02:26:29.236Z,70.59
2022-07-31T02:27:04.358Z,71.23
2022-07-31T02:27:54.363Z,71.20
2022-07-31T02:28:15.233Z,70.63
2022-07-31T02:28:50.276Z,70.50
2022-07-31T02:29:25.602Z,71.43
2022-07-31T02:30:00.938Z,71.73
2022-07-31T02:30:39.405Z,72.64
2022-07-31T02:31:11.791Z,71.83
2022-07-31T02:31:46.893Z,72.03
2022-07-31T02:32:22.235Z,72.30
2022-07-31T02:32:57.681Z,72.34
2022-07-31T02:33:33.008Z,72.71
2022-07-31T02:34:08.535Z,72.34
2022-07-31T02:34:43.554Z,72.64
2022-07-31T02:35:18.676Z,72.24
2022-07-31T02:35:54.205Z,71.60
2022-07-31T02:36:29.568Z,72.44
2022-07-31T02:37:05.136Z,71.23
2022-07-31T02:37:40.770Z,72.54
2022-07-31T02:38:22.666Z,72.14
2022-07-31T02:38:51.528Z,72.64
2022-07-31T02:39:30.330Z,73.44
2022-07-31T02:40:02.612Z,71.20
2022-07-31T02:40:37.744Z,71.43
2022-07-31T02:41:12.893Z,71.33
2022-07-31T02:41:48.203Z,71.83
2022-07-31T02:42:23.530Z,72.03
2022-07-31T02:42:58.873Z,71.83
2022-07-31T02:43:34.599Z,72.64
2022-07-31T02:44:09.835Z,72.24
2022-07-31T02:44:45.149Z,72.44
2022-07-31T02:45:20.645Z,72.03
2022-07-31T02:45:55.854Z,71.73
2022-07-31T02:46:31.403Z,72.24
2022-07-31T02:47:06.680Z,71.73
2022-07-31T02:47:41.793Z,72.54
2022-07-31T02:48:17.047Z,72.03
2022-07-31T02:48:52.719Z,72.44
2022-07-31T02:49:28.191Z,71.83
2022-07-31T02:50:03.260Z,72.84
2022-07-31T02:50:38.730Z,72.64
2022-07-31T02:51:14.063Z,72.74
2022-07-31T02:51:49.173Z,73.14
2022-07-31T02:52:24.499Z,72.74
2022-07-31T02:52:59.840Z,73.75
2022-07-31T02:53:34.881Z,72.94
2022-07-31T02:54:09.921Z,73.95
2022-07-31T02:54:45.446Z,74.05
2022-07-31T02:55:20.968Z,72.44
2022-07-31T02:55:56.119Z,72.17
2022-07-31T02:56:31.566Z,72.64
2022-07-31T02:57:07.061Z,72.34
2022-07-31T02:57:44.467Z,72.34
2022-07-31T02:58:17.916Z,73.04
2022-07-31T02:58:53.028Z,72.84
2022-07-31T02:59:28.160Z,72.54
2022-07-31T03:00:03.412Z,72.34
2022-07-31T03:00:38.781Z,72.24
2022-07-31T03:01:13.718Z,72.54
2022-07-31T03:01:48.905Z,72.54
2022-07-31T03:02:24.257Z,72.37
2022-07-31T03:02:59.488Z,72.57
2022-07-31T03:03:34.792Z,72.54
2022-07-31T03:04:10.543Z,73.18
2022-07-31T03:04:45.760Z,72.88
2022-07-31T03:05:20.934Z,72.97
2022-07-31T03:05:56.484Z,73.18
2022-07-31T03:06:31.683Z,74.08
2022-07-31T03:07:06.889Z,73.98
2022-07-31T03:07:42.301Z,72.88
2022-07-31T03:08:17.546Z,74.15
2022-07-31T03:08:52.823Z,75.19
2022-07-31T03:09:27.954Z,75.99
2022-07-31T03:10:03.220Z,73.48
2022-07-31T03:10:38.856Z,72.77
2022-07-31T03:11:13.882Z,72.67
2022-07-31T03:11:49.095Z,72.88
2022-07-31T03:12:24.642Z,72.88
2022-07-31T03:13:00.158Z,74.58
2022-07-31T03:13:35.376Z,73.58
2022-07-31T03:14:11.003Z,72.88
2022-07-31T03:14:46.346Z,72.67
2022-07-31T03:15:21.482Z,72.88
2022-07-31T03:15:56.544Z,73.08
2022-07-31T03:16:31.759Z,73.58
2022-07-31T03:17:07.684Z,73.58
2022-07-31T03:17:43.396Z,73.08
2022-07-31T03:18:18.845Z,73.48
2022-07-31T03:18:54.177Z,72.88
2022-07-31T03:19:29.487Z,74.38
2022-07-31T03:20:04.925Z,74.38
2022-07-31T03:20:40.139Z,73.38
2022-07-31T03:21:15.392Z,73.18
2022-07-31T03:21:50.724Z,72.81
2022-07-31T03:22:26.157Z,73.08
2022-07-31T03:23:01.189Z,73.78
2022-07-31T03:23:36.609Z,73.32
2022-07-31T03:24:11.752Z,73.41
2022-07-31T03:24:47.173Z,72.81
2022-07-31T03:25:22.812Z,73.38
2022-07-31T03:25:58.430Z,73.28
2022-07-31T03:26:33.990Z,72.97
2022-07-31T03:27:09.128Z,73.01
2022-07-31T03:27:44.360Z,73.32
2022-07-31T03:28:19.898Z,73.08
2022-07-31T03:28:55.142Z,73.11
2022-07-31T03:29:39.885Z,73.82
2022-07-31T03:30:05.594Z,74.22
2022-07-31T03:30:41.020Z,75.02
2022-07-31T03:31:16.034Z,74.02
2022-07-31T03:31:51.390Z,74.12
2022-07-31T03:32:26.728Z,73.32
2022-07-31T03:33:02.003Z,74.42
2022-07-31T03:33:37.170Z,74.38
2022-07-31T03:34:12.587Z,73.72
2022-07-31T03:34:47.732Z,73.61
2022-07-31T03:35:22.866Z,73.72
2022-07-31T03:35:57.888Z,73.92
2022-07-31T03:36:32.916Z,73.32
2022-07-31T03:37:08.150Z,73.82
2022-07-31T03:37:43.375Z,73.72
2022-07-31T03:38:38.686Z,74.22
2022-07-31T03:38:54.017Z,74.32
2022-07-31T03:39:29.142Z,73.82
2022-07-31T03:40:04.278Z,74.02
2022-07-31T03:40:39.705Z,72.91
2022-07-31T03:41:14.719Z,73.32
2022-07-31T03:41:49.667Z,73.01
2022-07-31T03:42:25.218Z,73.11
2022-07-31T03:43:00.706Z,73.52
2022-07-31T03:43:44.073Z,73.61
2022-07-31T03:44:11.405Z,73.61
2022-07-31T03:44:46.459Z,73.61
2022-07-31T03:45:21.673Z,73.72
2022-07-31T03:45:57.216Z,73.01
2022-07-31T03:46:32.535Z,73.32
2022-07-31T03:47:07.748Z,73.72
2022-07-31T03:47:42.906Z,73.52
2022-07-31T03:48:18.138Z,73.32
2022-07-31T03:48:53.613Z,72.71
2022-07-31T03:49:28.694Z,72.91
2022-07-31T03:50:03.980Z,72.91
2022-07-31T03:50:39.103Z,74.32
2022-07-31T03:51:14.339Z,73.41
2022-07-31T03:51:49.707Z,73.61
2022-07-31T03:52:25.067Z,73.92
2022-07-31T03:53:00.020Z,73.82
2022-07-31T03:53:35.247Z,73.61
2022-07-31T03:54:10.593Z,73.01
2022-07-31T03:54:45.747Z,72.81
2022-07-31T03:55:21.162Z,72.91
2022-07-31T03:55:56.612Z,73.32
2022-07-31T03:56:31.750Z,73.52
2022-07-31T03:57:07.069Z,73.85
2022-07-31T03:57:42.396Z,74.46
2022-07-31T03:58:17.632Z,73.52
2022-07-31T03:58:53.135Z,73.52
2022-07-31T03:59:28.400Z,74.22
2022-07-31T04:00:03.892Z,74.12
2022-07-31T04:00:38.893Z,74.52
2022-07-31T04:01:13.998Z,74.12
2022-07-31T04:01:57.292Z,74.12
2022-07-31T04:02:24.952Z,74.12
2022-07-31T04:03:00.382Z,74.52
2022-07-31T04:03:35.601Z,75.13
2022-07-31T04:04:10.736Z,75.53
2022-07-31T04:04:45.860Z,75.73
2022-07-31T04:05:21.081Z,75.33
2022-07-31T04:05:56.402Z,74.93
2022-07-31T04:06:31.604Z,74.73
2022-07-31T04:07:06.933Z,74.22
2022-07-31T04:07:42.773Z,74.22
2022-07-31T04:08:18.042Z,74.32
2022-07-31T04:08:53.460Z,73.61
2022-07-31T04:09:28.849Z,72.51
2022-07-31T04:10:04.165Z,72.91
2022-07-31T04:10:39.682Z,72.91
2022-07-31T04:11:15.112Z,73.01
2022-07-31T04:11:50.152Z,73.32
2022-07-31T04:12:25.650Z,73.72
2022-07-31T04:13:00.663Z,73.52
2022-07-31T04:13:35.999Z,73.01
2022-07-31T04:14:11.226Z,72.91
2022-07-31T04:14:46.354Z,73.32
2022-07-31T04:15:21.784Z,72.81
2022-07-31T04:15:56.925Z,73.32
2022-07-31T04:16:32.151Z,73.32
2022-07-31T04:17:07.602Z,72.81
2022-07-31T04:17:42.918Z,73.21
2022-07-31T04:18:25.191Z,72.91
2022-07-31T04:19:00.623Z,73.25
2022-07-31T04:19:35.823Z,73.01
2022-07-31T04:20:11.455Z,73.32
2022-07-31T04:20:46.974Z,72.81
2022-07-31T04:21:22.194Z,73.21
2022-07-31T04:21:57.511Z,72.71
2022-07-31T04:22:33.101Z,73.92
2022-07-31T04:23:08.315Z,73.01
2022-07-31T04:23:46.907Z,72.71
2022-07-31T04:24:18.873Z,72.61
2022-07-31T04:24:54.035Z,73.61
2022-07-31T04:25:29.264Z,73.01
2022-07-31T04:26:04.404Z,73.41
2022-07-31T04:26:40.017Z,72.51
2022-07-31T04:27:15.542Z,72.20
2022-07-31T04:27:51.045Z,73.11
2022-07-31T04:28:26.398Z,72.71
2022-07-31T04:29:01.631Z,72.71
2022-07-31T04:29:36.835Z,72.20
2022-07-31T04:30:12.036Z,73.01
2022-07-31T04:30:47.241Z,74.02
2022-07-31T04:31:22.768Z,73.92
2022-07-31T04:31:57.887Z,72.31
2022-07-31T04:32:32.968Z,72.20
2022-07-31T04:33:08.174Z,72.20
2022-07-31T04:33:48.800Z,73.41
2022-07-31T04:34:18.703Z,72.31
2022-07-31T04:34:54.029Z,72.20
2022-07-31T04:35:29.438Z,73.52
2022-07-31T04:36:04.836Z,73.11
2022-07-31T04:36:40.240Z,72.61
2022-07-31T04:37:15.441Z,72.91
2022-07-31T04:37:50.941Z,72.81
2022-07-31T04:38:26.153Z,73.01
2022-07-31T04:39:01.241Z,72.81
2022-07-31T04:39:36.447Z,72.71
2022-07-31T04:40:11.786Z,73.11
2022-07-31T04:40:47.195Z,73.52
2022-07-31T04:41:22.616Z,73.92
2022-07-31T04:41:57.829Z,74.52
2022-07-31T04:42:33.050Z,74.12
2022-07-31T04:43:08.259Z,73.52
2022-07-31T04:43:43.369Z,73.11
2022-07-31T04:44:18.501Z,72.61
2022-07-31T04:44:54.146Z,73.41
2022-07-31T04:45:29.350Z,72.81
2022-07-31T04:46:04.460Z,72.91
2022-07-31T04:46:39.758Z,73.41
2022-07-31T04:47:14.974Z,73.21
2022-07-31T04:47:50.190Z,73.01
2022-07-31T04:48:25.615Z,72.91
2022-07-31T04:49:00.958Z,72.71
2022-07-31T04:49:36.268Z,73.01
2022-07-31T04:50:11.113Z,73.32
2022-07-31T04:50:46.331Z,73.21
2022-07-31T04:51:21.647Z,73.21
2022-07-31T04:51:56.948Z,72.91
2022-07-31T04:52:32.166Z,73.32
2022-07-31T04:53:07.477Z,73.11
2022-07-31T04:53:42.497Z,73.58
2022-07-31T04:54:17.812Z,74.62
2022-07-31T04:54:53.142Z,73.11
2022-07-31T04:55:28.580Z,73.21
2022-07-31T04:56:03.878Z,73.21
2022-07-31T04:56:38.920Z,73.28
2022-07-31T04:57:16.311Z,72.57
2022-07-31T04:57:49.646Z,72.20
2022-07-31T04:58:24.971Z,73.01
2022-07-31T04:59:00.267Z,72.47
2022-07-31T04:59:59.849Z,72.41
2022-07-31T05:00:11.008Z,72.47
2022-07-31T05:00:46.231Z,72.97
2022-07-31T05:01:21.488Z,72.37
2022-07-31T05:01:56.717Z,72.88
2022-07-31T05:02:31.782Z,72.61
2022-07-31T05:03:07.273Z,72.67
2022-07-31T05:03:42.704Z,72.51
2022-07-31T05:04:17.844Z,71.77
2022-07-31T05:04:57.215Z,73.01
2022-07-31T05:05:27.986Z,73.18
2022-07-31T05:06:03.196Z,72.77
2022-07-31T05:06:38.631Z,71.06
2022-07-31T05:07:14.248Z,71.06
2022-07-31T05:07:49.446Z,71.36
2022-07-31T05:08:25.068Z,71.87
2022-07-31T05:09:00.163Z,71.87
2022-07-31T05:09:36.445Z,71.97
2022-07-31T05:10:10.709Z,70.66
2022-07-31T05:10:46.143Z,71.67
2022-07-31T05:11:21.664Z,70.66
2022-07-31T05:11:57.174Z,71.26
2022-07-31T05:12:32.589Z,71.16
2022-07-31T05:13:07.893Z,71.87
2022-07-31T05:13:43.046Z,71.67
2022-07-31T05:14:18.148Z,71.77
2022-07-31T05:14:53.607Z,72.57
2022-07-31T05:15:29.243Z,72.07
2022-07-31T05:16:04.335Z,70.73
2022-07-31T05:16:39.873Z,72.34
2022-07-31T05:17:14.993Z,71.26
2022-07-31T05:17:50.614Z,71.26
2022-07-31T05:18:25.822Z,71.67
2022-07-31T05:19:01.027Z,72.17
2022-07-31T05:19:36.343Z,70.96
2022-07-31T05:20:11.245Z,70.66
2022-07-31T05:20:46.576Z,70.83
2022-07-31T05:21:21.920Z,70.76
2022-07-31T05:22:01.794Z,70.66
2022-07-31T05:22:32.430Z,71.26
2022-07-31T05:23:07.633Z,70.96
2022-07-31T05:23:42.951Z,71.67
2022-07-31T05:24:18.271Z,71.36
2022-07-31T05:24:53.247Z,71.47
2022-07-31T05:25:28.567Z,71.77
2022-07-31T05:26:03.783Z,72.17
2022-07-31T05:26:39.294Z,71.26
2022-07-31T05:27:14.522Z,71.67
2022-07-31T05:27:50.059Z,71.26
2022-07-31T05:31:05.049Z,70.96
2022-07-31T05:31:40.454Z,71.97
2022-07-31T05:32:15.889Z,71.87
2022-07-31T05:32:50.946Z,71.97
2022-07-31T05:33:26.246Z,71.97
2022-07-31T05:34:01.441Z,71.87
2022-07-31T05:34:36.411Z,72.57
2022-07-31T05:35:11.706Z,72.77
2022-07-31T05:35:46.919Z,73.38
2022-07-31T05:36:21.922Z,72.77
2022-07-31T05:36:57.339Z,72.64
2022-07-31T05:37:32.643Z,71.73
2022-07-31T05:38:11.828Z,72.03
2022-07-31T05:38:43.251Z,71.87
2022-07-31T05:39:18.435Z,70.66
2022-07-31T05:39:54.036Z,71.53
2022-07-31T05:40:29.144Z,71.83
2022-07-31T05:41:04.641Z,71.83
2022-07-31T05:41:39.968Z,72.34
2022-07-31T05:42:15.040Z,72.44
2022-07-31T05:42:50.238Z,72.24
2022-07-31T05:43:32.578Z,72.34
2022-07-31T05:44:07.807Z,71.83
2022-07-31T05:44:43.120Z,71.94
2022-07-31T05:45:18.404Z,71.23
2022-07-31T05:45:53.484Z,71.23
2022-07-31T05:46:28.604Z,71.53
2022-07-31T05:47:03.740Z,71.63
2022-07-31T05:47:39.876Z,71.63
2022-07-31T05:48:14.589Z,71.83
2022-07-31T05:48:52.355Z,71.23
2022-07-31T05:49:25.208Z,71.20
2022-07-31T05:50:00.419Z,71.90
2022-07-31T05:50:35.658Z,71.94
2022-07-31T05:51:10.834Z,71.50
2022-07-31T05:51:45.960Z,70.70
2022-07-31T05:52:21.427Z,71.20
2022-07-31T05:52:56.801Z,71.63
2022-07-31T05:53:32.104Z,71.50
2022-07-31T05:54:07.543Z,71.60
2022-07-31T05:54:43.077Z,71.03
2022-07-31T05:55:18.597Z,71.33
2022-07-31T05:55:54.135Z,70.59
2022-07-31T05:56:29.350Z,71.00
2022-07-31T05:57:05.145Z,71.30
2022-07-31T05:57:40.369Z,71.20
2022-07-31T05:58:17.049Z,72.50
2022-07-31T05:58:51.002Z,71.90
2022-07-31T05:59:26.304Z,71.70
2022-07-31T06:00:03.958Z,72.30
2022-07-31T06:00:36.772Z,70.70
2022-07-31T06:01:11.949Z,70.89
2022-07-31T06:01:46.991Z,70.59
2022-07-31T06:02:22.134Z,71.20
2022-07-31T06:02:57.558Z,70.70
2022-07-31T06:03:36.960Z,71.16
2022-07-31T06:04:07.966Z,70.09
2022-07-31T06:04:43.180Z,71.00
2022-07-31T06:05:18.489Z,70.59
2022-07-31T06:05:53.609Z,70.79
2022-07-31T06:06:28.826Z,71.30
2022-07-31T06:07:04.077Z,71.20
2022-07-31T06:07:39.231Z,70.56
2022-07-31T06:08:14.536Z,71.06
2022-07-31T06:08:49.754Z,70.59
2022-07-31T06:09:25.166Z,70.59
2022-07-31T06:10:00.472Z,71.67
2022-07-31T06:10:35.881Z,71.06
2022-07-31T06:11:11.001Z,71.16
2022-07-31T06:11:46.133Z,71.06
2022-07-31T06:12:21.311Z,70.56
2022-07-31T06:12:56.535Z,70.93
2022-07-31T06:13:32.040Z,71.36
2022-07-31T06:14:07.584Z,71.03
2022-07-31T06:14:42.833Z,70.32
2022-07-31T06:15:18.125Z,70.12
2022-07-31T06:15:53.267Z,70.43
2022-07-31T06:16:28.875Z,70.50
2022-07-31T06:17:03.936Z,71.23
2022-07-31T06:17:44.243Z,70.59
2022-07-31T06:18:14.595Z,70.70
2022-07-31T06:18:49.914Z,69.79
2022-07-31T06:19:25.201Z,69.79
2022-07-31T06:20:00.403Z,69.89
2022-07-31T06:20:37.254Z,70.19
2022-07-31T06:21:32.126Z,69.66
2022-07-31T06:22:07.863Z,68.76
2022-07-31T06:22:42.770Z,69.56
2022-07-31T06:23:23.095Z,68.62
2022-07-31T06:23:53.403Z,68.62
2022-07-31T06:24:28.630Z,68.62
2022-07-31T06:25:03.989Z,68.92
2022-07-31T06:25:39.313Z,68.92
2022-07-31T06:26:14.529Z,68.69
2022-07-31T06:26:49.875Z,68.62
2022-07-31T06:27:33.872Z,68.79
2022-07-31T06:28:01.124Z,67.69
2022-07-31T06:28:46.479Z,69.49
2022-07-31T06:29:10.693Z,69.99
2022-07-31T06:29:45.927Z,68.08
2022-07-31T06:30:21.237Z,67.99
2022-07-31T06:30:56.364Z,66.58
2022-07-31T06:31:31.889Z,66.88
2022-07-31T06:32:07.488Z,66.18
2022-07-31T06:32:42.809Z,66.78
2022-07-31T06:33:36.722Z,66.15
2022-07-31T06:33:53.847Z,66.95
2022-07-31T06:34:29.039Z,66.08
2022-07-31T06:35:03.957Z,66.95
2022-07-31T06:35:39.281Z,65.65
2022-07-31T06:36:14.606Z,66.45
2022-07-31T06:36:49.825Z,65.75
2022-07-31T06:37:25.044Z,65.72
2022-07-31T06:38:00.361Z,65.55
2022-07-31T06:38:35.554Z,64.95
2022-07-31T06:39:10.879Z,66.45
2022-07-31T06:39:56.042Z,65.45
2022-07-31T06:40:21.415Z,65.85
2022-07-31T06:40:56.616Z,65.22
2022-07-31T06:41:31.800Z,66.25
2022-07-31T06:42:07.130Z,65.92
2022-07-31T06:42:42.463Z,66.65
2022-07-31T06:43:17.767Z,66.05
2022-07-31T06:43:52.894Z,66.22
2022-07-31T06:44:28.114Z,65.95
2022-07-31T06:45:03.412Z,65.62
2022-07-31T06:45:51.521Z,66.62
2022-07-31T06:46:13.863Z,65.31
2022-07-31T06:46:49.710Z,66.02
2022-07-31T06:47:25.019Z,65.55
2022-07-31T06:48:00.471Z,66.62
2022-07-31T06:48:35.967Z,64.45
2022-07-31T06:49:11.104Z,65.01
2022-07-31T06:49:46.464Z,65.22
2022-07-31T06:50:22.034Z,65.82
2022-07-31T06:51:29.215Z,65.52
2022-07-31T06:51:33.014Z,65.42
2022-07-31T06:52:08.188Z,65.85
2022-07-31T06:52:43.295Z,66.45
2022-07-31T06:53:18.453Z,66.85
2022-07-31T06:53:53.752Z,67.05
2022-07-31T06:54:28.958Z,66.52
2022-07-31T06:55:04.179Z,66.72
2022-07-31T06:55:44.163Z,67.45
2022-07-31T06:56:14.974Z,67.42
2022-07-31T06:56:50.104Z,66.35
2022-07-31T06:57:25.445Z,65.85
2022-07-31T06:58:00.867Z,66.55
2022-07-31T06:58:36.506Z,66.85
2022-07-31T06:59:11.720Z,66.95
2022-07-31T06:59:47.107Z,66.72
2022-07-31T07:00:22.338Z,67.15
2022-07-31T07:00:57.393Z,66.65
2022-07-31T07:01:32.758Z,67.05
2022-07-31T07:02:08.092Z,67.25
2022-07-31T07:02:42.994Z,68.12
2022-07-31T07:03:18.231Z,68.22
2022-07-31T07:03:53.359Z,67.52
2022-07-31T07:05:05.939Z,67.96
2022-07-31T07:05:06.642Z,67.82
2022-07-31T07:05:40.260Z,67.52
2022-07-31T07:06:14.113Z,67.12
2022-07-31T07:06:49.226Z,67.82
2022-07-31T07:07:24.451Z,66.82
2022-07-31T07:08:00.074Z,67.22
2022-07-31T07:08:35.444Z,67.52
2022-07-31T07:09:10.852Z,68.02
2022-07-31T07:09:46.060Z,67.42
2022-07-31T07:10:21.219Z,68.32
2022-07-31T07:10:56.523Z,68.32
2022-07-31T07:11:32.200Z,68.12
2022-07-31T07:12:07.855Z,67.92
2022-07-31T07:12:42.921Z,67.32
2022-07-31T07:13:18.350Z,67.12
2022-07-31T07:13:53.974Z,66.62
2022-07-31T07:14:29.306Z,67.79
2022-07-31T07:15:04.368Z,67.39
2022-07-31T07:15:39.779Z,68.12
2022-07-31T07:16:15.095Z,66.72
2022-07-31T07:16:50.493Z,68.09
2022-07-31T07:17:29.011Z,68.89
2022-07-31T07:18:01.040Z,67.79
2022-07-31T07:18:36.345Z,68.39
2022-07-31T07:19:11.481Z,68.49
2022-07-31T07:19:46.728Z,68.69
2022-07-31T07:20:21.945Z,67.89
2022-07-31T07:20:57.071Z,68.49
2022-07-31T07:21:32.299Z,68.09
2022-07-31T07:22:07.699Z,67.89
2022-07-31T07:22:42.669Z,67.86
2022-07-31T07:23:17.580Z,68.59
2022-07-31T07:23:52.811Z,69.79
2022-07-31T07:24:28.034Z,66.96
2022-07-31T07:25:03.248Z,67.89
2022-07-31T07:25:39.069Z,67.96
2022-07-31T07:26:14.689Z,68.36
2022-07-31T07:26:50.003Z,68.05
2022-07-31T07:27:25.451Z,68.19
2022-07-31T07:28:00.855Z,67.86
2022-07-31T07:28:36.358Z,67.55
2022-07-31T07:29:11.706Z,67.36
2022-07-31T07:29:47.204Z,67.25
2022-07-31T07:30:22.595Z,66.96
2022-07-31T07:30:58.071Z,67.36
2022-07-31T07:31:33.592Z,67.55
2022-07-31T07:32:08.693Z,68.66
2022-07-31T07:32:44.007Z,68.76
2022-07-31T07:33:40.481Z,68.36
2022-07-31T07:33:54.612Z,67.96
2022-07-31T07:34:30.180Z,67.86
2022-07-31T07:35:05.615Z,68.16
2022-07-31T07:35:40.944Z,68.16
2022-07-31T07:36:22.953Z,66.86
2022-07-31T07:36:51.374Z,67.66
2022-07-31T07:37:26.499Z,67.96
2022-07-31T07:38:01.697Z,69.46